createdAt,value
2022-08-20T00:01:28.932Z,72.26
2022-08-20T00:05:39.855Z,72.46
2022-08-20T00:09:48.337Z,72.64
2022-08-20T00:13:58.793Z,73.12
2022-08-20T00:18:07.563Z,73.37
2022-08-20T00:22:15.557Z,73.57
2022-08-20T00:26:24.743Z,73.72
2022-08-20T00:30:33.746Z,74.08
2022-08-20T00:34:42.383Z,74.16
2022-08-20T00:38:50.353Z,74.37
2022-08-20T00:43:00.683Z,74.51
2022-08-20T00:47:09.583Z,74.68
2022-08-20T00:51:23.560Z,74.73
2022-08-20T00:55:32.323Z,75.48
2022-08-20T00:59:42.603Z,75.48
2022-08-20T01:03:50.419Z,75.54
2022-08-20T01:07:59.285Z,75.74
2022-08-20T01:12:08.472Z,75.70
2022-08-20T01:16:21.070Z,75.79
2022-08-20T01:20:31.924Z,75.63
2022-08-20T01:24:41.866Z,75.87
2022-08-20T01:28:52.510Z,76.04
2022-08-20T01:33:00.528Z,76.34
2022-08-20T01:37:08.216Z,76.51
2022-08-20T01:41:35.239Z,76.74
2022-08-20T01:45:43.318Z,77.29
2022-08-20T01:49:53.665Z,77.31
2022-08-20T01:54:03.215Z,77.60
2022-08-20T01:58:11.395Z,77.48
2022-08-20T02:02:19.145Z,77.36
2022-08-20T02:06:29.292Z,77.58
2022-08-20T02:10:37.549Z,77.89
2022-08-20T02:14:47.840Z,78.50
2022-08-20T02:18:58.687Z,78.90
2022-08-20T02:23:07.235Z,79.40
2022-08-20T02:27:16.299Z,79.17
2022-08-20T02:31:25.415Z,79.34
2022-08-20T02:35:33.787Z,79.10
2022-08-20T02:39:41.463Z,79.17
2022-08-20T02:43:49.952Z,79.34
2022-08-20T02:47:59.331Z,79.45
2022-08-20T02:52:08.216Z,79.45
2022-08-20T02:56:18.293Z,79.58
2022-08-20T03:00:26.828Z,79.94
2022-08-20T03:04:34.606Z,79.58
2022-08-20T03:08:42.969Z,79.32
2022-08-20T03:12:50.837Z,79.36
2022-08-20T03:16:59.757Z,79.14
2022-08-20T03:21:09.865Z,79.32
2022-08-20T03:25:18.193Z,79.22
2022-08-20T03:29:25.891Z,79.12
2022-08-20T03:33:33.532Z,79.00
2022-08-20T03:37:42.209Z,78.94
2022-08-20T03:41:56.179Z,78.95
2022-08-20T03:46:04.938Z,78.78
2022-08-20T03:50:33.002Z,78.57
2022-08-20T03:54:40.694Z,78.45
2022-08-20T03:58:49.969Z,78.35
2022-08-20T04:02:57.778Z,78.30
2022-08-20T04:07:12.733Z,78.24
2022-08-20T04:11:20.732Z,78.16
2022-08-20T04:15:28.975Z,78.21
2022-08-20T04:19:37.082Z,78.22
2022-08-20T04:23:44.825Z,78.15
2022-08-20T04:27:52.728Z,78.09
2022-08-20T04:32:02.772Z,78.16
2022-08-20T04:36:14.753Z,78.10
2022-08-20T04:40:42.239Z,78.07
2022-08-20T04:44:50.005Z,77.89
2022-08-20T04:48:58.390Z,77.88
2022-08-20T04:53:07.160Z,77.94
2022-08-20T04:57:14.971Z,77.89
2022-08-20T05:01:24.457Z,77.88
2022-08-20T05:05:32.505Z,77.84
2022-08-20T05:09:43.821Z,77.90
2022-08-20T05:13:53.836Z,77.69
2022-08-20T05:18:06.287Z,77.67
2022-08-20T05:22:13.928Z,77.49
2022-08-20T05:26:23.097Z,77.45
2022-08-20T05:30:34.296Z,77.41
2022-08-20T05:34:43.541Z,77.45
2022-08-20T05:38:52.542Z,77.45
2022-08-20T05:43:00.490Z,77.57
2022-08-20T05:47:09.497Z,77.73
2022-08-20T05:51:18.877Z,77.55
2022-08-20T05:55:26.635Z,77.46
2022-08-20T05:59:36.971Z,77.49
2022-08-20T06:04:02.149Z,77.58
2022-08-20T06:08:12.015Z,77.72
2022-08-20T06:12:21.287Z,77.78
2022-08-20T06:16:29.636Z,77.89
2022-08-20T06:20:40.144Z,78.02
2022-08-20T06:24:48.197Z,78.11
2022-08-20T06:28:55.947Z,78.07
2022-08-20T06:33:03.453Z,78.03
2022-08-20T06:37:19.224Z,77.96
2022-08-20T06:41:36.133Z,78.09
2022-08-20T06:45:45.238Z,77.86
2022-08-20T06:49:53.050Z,77.77
2022-08-20T06:54:00.647Z,77.74
2022-08-20T06:58:15.634Z,77.82
2022-08-20T07:02:38.635Z,77.76
2022-08-20T07:06:48.404Z,77.67
2022-08-20T07:10:56.197Z,77.77
2022-08-20T07:15:03.665Z,77.91
2022-08-20T07:19:11.396Z,77.86
2022-08-20T07:23:19.107Z,77.67
2022-08-20T07:27:26.852Z,77.39
2022-08-20T07:31:52.448Z,77.13
2022-08-20T07:36:03.863Z,76.91
2022-08-20T07:40:15.902Z,76.55
2022-08-20T07:44:30.919Z,76.23
2022-08-20T07:48:42.105Z,75.76
2022-08-20T07:52:52.742Z,75.55
2022-08-20T07:57:04.105Z,75.24
2022-08-20T08:01:12.308Z,74.94
2022-08-20T08:05:20.076Z,74.33
2022-08-20T08:09:28.261Z,74.00
2022-08-20T08:13:38.777Z,73.57
2022-08-20T08:17:48.723Z,73.06
2022-08-20T08:21:58.628Z,72.64
2022-08-20T08:26:06.702Z,72.27
2022-08-20T08:30:23.933Z,71.92
2022-08-20T08:34:32.194Z,71.18
2022-08-20T08:38:45.953Z,71.01
2022-08-20T08:42:58.469Z,70.75
2022-08-20T08:47:14.093Z,70.37
2022-08-20T08:51:37.632Z,69.72
2022-08-20T08:55:45.578Z,69.08
2022-08-20T09:00:04.240Z,68.21
2022-08-20T09:04:13.448Z,67.71
2022-08-20T09:08:24.288Z,67.00
2022-08-20T09:12:33.399Z,67.27
2022-08-20T09:16:52.431Z,66.64
2022-08-20T09:21:01.410Z,66.28
2022-08-20T09:25:10.452Z,65.71
2022-08-20T09:29:18.489Z,65.47
2022-08-20T09:33:26.650Z,65.61
2022-08-20T09:37:37.695Z,64.93
2022-08-20T09:41:46.036Z,65.30
2022-08-20T09:45:53.829Z,64.39
2022-08-20T09:50:01.617Z,64.32
2022-08-20T09:54:10.736Z,63.99
2022-08-20T09:58:22.817Z,63.95
2022-08-20T10:02:31.090Z,64.50
2022-08-20T10:06:44.263Z,63.36
2022-08-20T10:10:56.000Z,63.02
2022-08-20T10:15:04.135Z,63.30
2022-08-20T10:19:11.963Z,62.95
2022-08-20T10:23:19.603Z,62.24
2022-08-20T10:27:27.225Z,61.67
2022-08-20T10:31:35.272Z,61.86
2022-08-20T10:35:42.818Z,61.27
2022-08-20T10:39:53.184Z,60.54
2022-08-20T10:44:01.164Z,60.02
2022-08-20T10:48:11.111Z,60.20
2022-08-20T10:52:19.688Z,60.41
2022-08-20T10:56:27.428Z,60.39
2022-08-20T11:00:35.219Z,60.39
2022-08-20T11:04:43.129Z,59.94
2022-08-20T11:08:50.775Z,59.98
2022-08-20T11:13:00.720Z,59.75
2022-08-20T11:17:11.625Z,59.63
2022-08-20T11:21:21.693Z,59.66
2022-08-20T11:25:29.781Z,59.47
2022-08-20T11:29:37.389Z,59.84
2022-08-20T11:33:45.874Z,59.86
2022-08-20T11:37:57.724Z,59.45
2022-08-20T11:42:06.038Z,59.56
2022-08-20T11:46:13.664Z,59.40
2022-08-20T11:50:25.602Z,58.80
2022-08-20T11:54:40.806Z,57.57
2022-08-20T11:58:48.912Z,57.26
2022-08-20T12:02:57.137Z,56.54
2022-08-20T12:07:15.036Z,55.95
2022-08-20T12:11:22.736Z,56.12
2022-08-20T12:15:30.168Z,55.54
2022-08-20T12:19:40.272Z,54.65
2022-08-20T12:23:48.973Z,54.30
2022-08-20T12:27:56.548Z,54.10
2022-08-20T12:32:05.488Z,54.05
2022-08-20T12:36:13.712Z,54.00
2022-08-20T12:40:31.764Z,53.62
2022-08-20T12:44:42.699Z,53.36
2022-08-20T12:48:50.135Z,53.10
2022-08-20T12:52:58.104Z,53.31
2022-08-20T12:57:08.017Z,53.29
2022-08-20T13:01:17.262Z,53.59
2022-08-20T13:05:25.008Z,54.10
2022-08-20T13:09:36.012Z,54.03
2022-08-20T13:13:48.527Z,54.00
2022-08-20T13:17:59.192Z,54.23
2022-08-20T13:22:09.108Z,54.55
2022-08-20T13:26:17.411Z,55.33
2022-08-20T13:30:25.624Z,55.90
2022-08-20T13:34:33.598Z,56.31
2022-08-20T13:38:41.762Z,56.36
2022-08-20T13:42:50.166Z,56.49
2022-08-20T13:46:58.268Z,56.55
2022-08-20T13:51:07.067Z,56.67
2022-08-20T13:55:16.827Z,57.07
2022-08-20T13:59:25.411Z,57.83
2022-08-20T14:03:36.112Z,58.08
2022-08-20T14:07:48.006Z,60.17
2022-08-20T14:11:55.691Z,61.44
2022-08-20T14:16:03.813Z,62.62
2022-08-20T14:20:16.086Z,64.34
2022-08-20T14:24:26.193Z,64.93
2022-08-20T14:28:34.625Z,65.63
2022-08-20T14:32:43.322Z,65.98
2022-08-20T14:36:50.813Z,66.68
2022-08-20T14:40:59.233Z,66.66
2022-08-20T14:45:09.151Z,66.42
2022-08-20T14:49:17.896Z,66.89
2022-08-20T14:53:25.850Z,67.50
2022-08-20T14:57:33.756Z,67.70
2022-08-20T15:01:41.728Z,67.94
2022-08-20T15:05:50.241Z,67.93
2022-08-20T15:09:58.799Z,67.55
2022-08-20T15:14:06.762Z,66.40
2022-08-20T15:18:14.394Z,67.50
2022-08-20T15:22:21.967Z,68.53
2022-08-20T15:26:31.962Z,68.97
2022-08-20T15:30:41.748Z,69.04
2022-08-20T15:34:52.189Z,69.63
2022-08-20T15:39:02.284Z,70.01
2022-08-20T15:43:10.259Z,69.83
2022-08-20T15:47:24.782Z,69.93
2022-08-20T15:51:38.464Z,70.34
2022-08-20T15:55:54.242Z,70.35
2022-08-20T16:00:10.741Z,70.44
2022-08-20T16:04:38.664Z,70.74
2022-08-20T16:09:00.962Z,72.04
2022-08-20T16:13:14.615Z,73.55
2022-08-20T16:17:30.799Z,74.95
2022-08-20T16:21:42.234Z,75.30
2022-08-20T16:25:58.608Z,75.46
2022-08-20T16:30:10.017Z,75.43
2022-08-20T16:34:33.332Z,75.46
2022-08-20T16:38:52.563Z,75.92
2022-08-20T16:43:04.707Z,76.10
2022-08-20T16:47:18.394Z,76.64
2022-08-20T16:51:40.958Z,76.79
2022-08-20T16:55:49.086Z,77.20
2022-08-20T17:00:08.245Z,77.71
2022-08-20T17:04:24.703Z,78.04
2022-08-20T17:08:36.159Z,78.34
2022-08-20T17:12:43.942Z,78.54
2022-08-20T17:16:55.210Z,78.85
2022-08-20T17:21:13.623Z,79.27
2022-08-20T17:25:30.707Z,79.29
2022-08-20T17:29:49.660Z,79.37
2022-08-20T17:33:57.970Z,79.98
2022-08-20T17:38:07.208Z,80.70
2022-08-20T17:42:19.361Z,80.86
2022-08-20T17:46:29.119Z,80.92
2022-08-20T17:50:40.956Z,80.97
2022-08-20T17:54:51.154Z,81.22
2022-08-20T17:59:05.883Z,81.29
2022-08-20T18:03:22.711Z,81.71
2022-08-20T18:07:40.192Z,81.82
2022-08-20T18:11:54.323Z,82.12
2022-08-20T18:16:04.092Z,82.60
2022-08-20T18:20:26.945Z,82.84
2022-08-20T18:24:40.384Z,83.43
2022-08-20T18:28:52.199Z,83.66
2022-08-20T18:33:06.962Z,83.66
2022-08-20T18:37:28.272Z,83.63
2022-08-20T18:41:38.442Z,83.83
2022-08-20T18:45:45.737Z,83.84
2022-08-20T18:50:16.101Z,83.94
2022-08-20T18:54:28.234Z,83.71
2022-08-20T18:58:38.536Z,83.48
2022-08-20T19:03:03.453Z,83.43
2022-08-20T19:07:15.493Z,83.29
2022-08-20T19:11:49.146Z,83.21
2022-08-20T19:16:00.921Z,83.17
2022-08-20T19:20:12.573Z,83.29
2022-08-20T19:24:25.889Z,83.19
2022-08-20T19:28:36.587Z,83.28
2022-08-20T19:32:54.040Z,83.46
2022-08-20T19:37:27.757Z,83.56
2022-08-20T19:41:37.106Z,83.84
2022-08-20T19:45:49.149Z,83.94
2022-08-20T19:50:04.903Z,84.28
2022-08-20T19:54:22.382Z,84.04
2022-08-20T19:58:31.888Z,83.53
2022-08-20T20:02:41.754Z,83.25
2022-08-20T20:06:51.958Z,83.13
2022-08-20T20:11:02.223Z,83.05
2022-08-20T20:15:11.158Z,82.99
2022-08-20T20:19:26.645Z,83.12
2022-08-20T20:23:41.649Z,83.08
2022-08-20T20:27:56.560Z,83.32
2022-08-20T20:32:14.225Z,83.29
2022-08-20T20:36:34.605Z,83.38
2022-08-20T20:40:49.262Z,83.51
2022-08-20T20:44:57.926Z,83.62
2022-08-20T20:49:17.851Z,83.72
2022-08-20T20:53:50.907Z,83.80
2022-08-20T20:58:02.713Z,83.88
2022-08-20T21:02:10.878Z,83.85
2022-08-20T21:06:18.555Z,83.91
2022-08-20T21:10:28.401Z,84.04
2022-08-20T21:14:36.210Z,84.13
2022-08-20T21:18:43.525Z,84.26
2022-08-20T21:22:51.279Z,84.34
2022-08-20T21:26:59.657Z,84.36
2022-08-20T21:31:07.563Z,84.58
2022-08-20T21:35:15.913Z,84.63
2022-08-20T21:39:23.701Z,84.82
2022-08-20T21:43:33.820Z,84.68
2022-08-20T21:47:44.061Z,84.76
2022-08-20T21:51:55.234Z,84.88
2022-08-20T21:56:02.923Z,84.97
2022-08-20T22:00:18.666Z,85.00
2022-08-20T22:04:27.775Z,85.07
2022-08-20T22:08:36.117Z,85.46
2022-08-20T22:12:43.805Z,85.54
2022-08-20T22:16:51.352Z,85.66
2022-08-20T22:20:59.241Z,85.59
2022-08-20T22:25:07.833Z,85.82
2022-08-20T22:29:19.724Z,85.90
2022-08-20T22:33:27.595Z,86.17
2022-08-20T22:37:36.381Z,86.26
2022-08-20T22:41:44.374Z,86.55
2022-08-20T22:45:54.481Z,86.42
2022-08-20T22:50:02.532Z,86.46
2022-08-20T22:54:12.424Z,86.59
2022-08-20T22:58:20.823Z,86.74
2022-08-20T23:02:39.249Z,86.70
2022-08-20T23:06:47.001Z,87.08
2022-08-20T23:10:57.377Z,87.10
2022-08-20T23:15:04.988Z,86.95
2022-08-20T23:19:15.189Z,86.92
2022-08-20T23:23:24.072Z,87.03
2022-08-20T23:27:32.718Z,87.28
2022-08-20T23:31:40.241Z,87.59
2022-08-20T23:35:47.904Z,87.94
2022-08-20T23:39:55.941Z,87.90
2022-08-20T23:44:03.852Z,87.89
2022-08-20T23:48:12.149Z,87.98
2022-08-20T23:52:20.862Z,88.07
2022-08-20T23:56:28.986Z,87.96
